Time;durP1;ratioP1;P1;durP2;ratioP2;P2;SDS_P1;SDS_P2;PMS_P1;PMS_P2;Temp;Humidity;BMP_temperature;BMP_pressure;BME280_temperature;BME280_humidity;BME280_pressure;Samples;Min_cycle;Max_cycle;Signal;HPM_P1;HPM_P2
2023/09/30 00:01:46;;;;;;;;;;;21.30;1.00;;;;;;4953519;29;20002;-54
2023/09/30 00:04:13;;;;;;;;;;;21.30;1.00;;;;;;4953721;29;20266;-54
2023/09/30 00:06:40;;;;;;;;;;;21.30;1.00;;;;;;4953888;29;19933;-56
2023/09/30 00:09:07;;;;;;;;;;;21.30;1.00;;;;;;4953306;28;20186;-53
2023/09/30 00:11:34;;;;;;;;;;;21.30;1.00;;;;;;4953883;29;20278;-54
2023/09/30 00:14:01;;;;;;;;;;;21.20;1.00;;;;;;4953702;29;20359;-52
2023/09/30 00:16:28;;;;;;;;;;;21.30;1.00;;;;;;4953492;29;19950;-55
2023/09/30 00:18:55;;;;;;;;;;;21.30;1.00;;;;;;4953283;28;19942;-52
2023/09/30 00:21:23;;;;;;;;;;;21.30;1.00;;;;;;4953572;29;20372;-53
2023/09/30 00:23:49;;;;;;;;;;;21.30;1.00;;;;;;4953299;29;20011;-56
2023/09/30 00:26:16;;;;;;;;;;;21.30;1.00;;;;;;4953402;29;20017;-53
2023/09/30 00:28:46;;;;;;;;;;;21.20;1.00;;;;;;4953109;28;19931;-55
2023/09/30 00:31:13;;;;;;;;;;;21.20;1.00;;;;;;4953451;29;19926;-55
2023/09/30 00:33:39;;;;;;;;;;;21.20;1.00;;;;;;4953872;28;19927;-53
2023/09/30 00:36:10;;;;;;;;;;;21.20;1.00;;;;;;4939721;29;20042;-57
2023/09/30 00:38:38;;;;;;;;;;;21.20;1.00;;;;;;4939238;29;19927;-53
2023/09/30 00:41:05;;;;;;;;;;;21.20;1.00;;;;;;4939400;29;19926;-56
2023/09/30 00:43:32;;;;;;;;;;;21.20;1.00;;;;;;4956541;29;20385;-56
2023/09/30 00:46:17;;;;;;;;;;;21.20;1.00;;;;;;4939318;29;20482;-55
2023/09/30 00:48:44;;;;;;;;;;;21.20;1.00;;;;;;4946836;29;20354;-54
2023/09/30 00:51:12;;;;;;;;;;;21.20;1.00;;;;;;4920252;29;20385;-52
2023/09/30 00:53:39;;;;;;;;;;;21.20;1.00;;;;;;4937085;29;19931;-52
2023/09/30 00:56:06;;;;;;;;;;;21.20;1.00;;;;;;4920478;29;20022;-55
2023/09/30 00:58:34;;;;;;;;;;;21.20;1.00;;;;;;4920096;29;19949;-54
2023/09/30 01:01:01;;;;;;;;;;;21.20;1.00;;;;;;4936971;29;20021;-56
2023/09/30 01:03:28;;;;;;;;;;;21.20;1.00;;;;;;4920191;29;19966;-55
2023/09/30 01:05:55;;;;;;;;;;;21.20;1.00;;;;;;4929253;29;19927;-54
2023/09/30 01:08:22;;;;;;;;;;;21.20;1.00;;;;;;4937275;29;20017;-52
2023/09/30 01:10:50;;;;;;;;;;;21.20;1.00;;;;;;4936476;29;19969;-60
2023/09/30 01:13:17;;;;;;;;;;;21.20;1.00;;;;;;4922298;29;19933;-54
2023/09/30 01:15:44;;;;;;;;;;;21.20;1.00;;;;;;4937026;29;19927;-53
2023/09/30 01:18:11;;;;;;;;;;;21.20;1.00;;;;;;4933213;29;19927;-54
2023/09/30 01:20:38;;;;;;;;;;;21.10;1.00;;;;;;4938221;29;19997;-57
2023/09/30 01:23:05;;;;;;;;;;;21.20;1.00;;;;;;4956059;29;20396;-55
2023/09/30 01:25:34;;;;;;;;;;;21.20;1.00;;;;;;4938701;29;19931;-55
2023/09/30 01:28:06;;;;;;;;;;;21.10;1.00;;;;;;4955987;29;19926;-57
2023/09/30 01:30:33;;;;;;;;;;;21.10;1.00;;;;;;4955813;28;19969;-54
2023/09/30 01:33:00;;;;;;;;;;;21.10;1.00;;;;;;4938634;29;19926;-54
2023/09/30 01:35:27;;;;;;;;;;;21.10;1.00;;;;;;4955827;29;19966;-53
2023/09/30 01:37:54;;;;;;;;;;;21.10;1.00;;;;;;4955527;29;19935;-52
2023/09/30 01:40:20;;;;;;;;;;;21.10;1.00;;;;;;4955339;28;19934;-51
2023/09/30 01:42:47;;;;;;;;;;;21.10;1.00;;;;;;4955540;29;19952;-55
2023/09/30 01:45:14;;;;;;;;;;;21.10;1.00;;;;;;4924982;29;20389;-55
2023/09/30 01:47:41;;;;;;;;;;;21.10;1.00;;;;;;4919073;29;19931;-53
2023/09/30 01:50:08;;;;;;;;;;;21.10;1.00;;;;;;4918989;29;19942;-55
2023/09/30 01:52:35;;;;;;;;;;;21.10;1.00;;;;;;4919099;29;19934;-55
2023/09/30 01:55:02;;;;;;;;;;;21.10;1.00;;;;;;4936289;29;19952;-56
2023/09/30 01:57:29;;;;;;;;;;;21.10;1.00;;;;;;4919415;29;19934;-53
2023/09/30 01:59:55;;;;;;;;;;;21.10;1.00;;;;;;4918711;29;19939;-51
2023/09/30 02:02:22;;;;;;;;;;;21.10;1.00;;;;;;4919097;29;19973;-50
2023/09/30 02:04:49;;;;;;;;;;;21.10;1.00;;;;;;4918863;29;19933;-55
2023/09/30 02:07:16;;;;;;;;;;;21.10;1.00;;;;;;4936527;29;19934;-57
2023/09/30 02:09:43;;;;;;;;;;;21.10;1.00;;;;;;4935664;29;19969;-55
2023/09/30 02:12:10;;;;;;;;;;;21.10;1.00;;;;;;4919045;29;19982;-53
2023/09/30 02:14:38;;;;;;;;;;;21.10;1.00;;;;;;4918687;29;19962;-53
2023/09/30 02:17:05;;;;;;;;;;;21.10;1.00;;;;;;4918809;29;19954;-52
2023/09/30 02:19:33;;;;;;;;;;;21.10;1.00;;;;;;4918568;29;19927;-57
2023/09/30 02:22:00;;;;;;;;;;;21.10;1.00;;;;;;4918911;29;19974;-56
2023/09/30 02:24:27;;;;;;;;;;;21.10;1.00;;;;;;4935652;29;19927;-54
2023/09/30 02:26:54;;;;;;;;;;;21.10;1.00;;;;;;4918597;29;19931;-52
2023/09/30 02:29:22;;;;;;;;;;;21.10;1.00;;;;;;4932030;29;19957;-55
2023/09/30 02:31:49;;;;;;;;;;;21.10;1.00;;;;;;4921685;29;20329;-52
2023/09/30 02:34:15;;;;;;;;;;;21.10;1.00;;;;;;4954739;29;19933;-52
2023/09/30 02:36:42;;;;;;;;;;;21.10;1.00;;;;;;4921645;29;20013;-53
2023/09/30 02:39:09;;;;;;;;;;;21.10;1.00;;;;;;4954272;28;20029;-53
2023/09/30 02:41:37;;;;;;;;;;;21.00;1.00;;;;;;4954836;29;19931;-55
2023/09/30 02:44:04;;;;;;;;;;;21.10;1.00;;;;;;4927683;29;19927;-51
2023/09/30 02:46:31;;;;;;;;;;;21.00;1.00;;;;;;4911656;29;19981;-52
2023/09/30 02:48:58;;;;;;;;;;;21.10;1.00;;;;;;4952568;28;20017;-54
2023/09/30 02:51:25;;;;;;;;;;;21.10;1.00;;;;;;4954163;29;19930;-54
2023/09/30 02:53:55;;;;;;;;;;;21.00;1.00;;;;;;4937137;29;19982;-52
2023/09/30 02:56:24;;;;;;;;;;;21.00;1.00;;;;;;4937205;29;20352;-55
2023/09/30 02:58:54;;;;;;;;;;;21.00;1.00;;;;;;4953317;29;20312;-53
2023/09/30 03:01:20;;;;;;;;;;;21.00;1.00;;;;;;4954071;29;19981;-54
2023/09/30 03:03:47;;;;;;;;;;;21.00;1.00;;;;;;4920281;29;20021;-53
2023/09/30 03:06:14;;;;;;;;;;;21.00;1.00;;;;;;4922493;29;19937;-56
2023/09/30 03:08:41;;;;;;;;;;;21.00;1.00;;;;;;4936869;28;19964;-55
2023/09/30 03:11:08;;;;;;;;;;;21.00;1.00;;;;;;4953970;29;19931;-51
2023/09/30 03:13:34;;;;;;;;;;;21.00;1.00;;;;;;4954675;29;19926;-56
2023/09/30 03:16:01;;;;;;;;;;;21.00;1.00;;;;;;4953884;29;20020;-60
2023/09/30 03:18:30;;;;;;;;;;;21.00;1.00;;;;;;4954044;29;19932;-54
2023/09/30 03:21:01;;;;;;;;;;;21.00;1.00;;;;;;4953638;28;20025;-51
2023/09/30 03:23:30;;;;;;;;;;;21.00;1.00;;;;;;4954008;29;19961;-52
2023/09/30 03:25:57;;;;;;;;;;;21.00;1.00;;;;;;4954101;29;19931;-54
2023/09/30 03:28:24;;;;;;;;;;;21.00;1.00;;;;;;4954106;29;19934;-53
2023/09/30 03:30:51;;;;;;;;;;;21.00;1.00;;;;;;4953486;28;19927;-55
2023/09/30 03:33:18;;;;;;;;;;;21.00;1.00;;;;;;4953870;29;19930;-56
2023/09/30 03:35:45;;;;;;;;;;;21.00;1.00;;;;;;4953796;29;19926;-53
2023/09/30 03:38:13;;;;;;;;;;;21.00;1.00;;;;;;4953990;29;19973;-53
2023/09/30 03:40:40;;;;;;;;;;;21.00;1.00;;;;;;4953666;28;20463;-54
2023/09/30 03:43:06;;;;;;;;;;;21.00;1.00;;;;;;4953746;29;19926;-58
2023/09/30 03:45:33;;;;;;;;;;;21.00;1.00;;;;;;4954080;29;20574;-52
2023/09/30 03:48:01;;;;;;;;;;;21.00;1.00;;;;;;4943558;29;19950;-61
2023/09/30 03:50:29;;;;;;;;;;;20.90;1.00;;;;;;4934320;29;20377;-52
2023/09/30 03:53:02;;;;;;;;;;;21.00;1.00;;;;;;4934835;29;20473;-52
2023/09/30 03:55:29;;;;;;;;;;;21.00;1.00;;;;;;4934642;29;19958;-55
2023/09/30 03:57:56;;;;;;;;;;;20.90;1.00;;;;;;4934495;29;19966;-53
2023/09/30 04:00:24;;;;;;;;;;;21.00;1.00;;;;;;4934367;29;19934;-51
2023/09/30 04:02:53;;;;;;;;;;;20.90;1.00;;;;;;4934369;29;19934;-57
2023/09/30 04:05:26;;;;;;;;;;;21.00;1.00;;;;;;4934902;29;20214;-53
2023/09/30 04:07:53;;;;;;;;;;;20.90;1.00;;;;;;4934370;29;19933;-54
2023/09/30 04:10:20;;;;;;;;;;;20.90;1.00;;;;;;4941880;29;20289;-52
2023/09/30 04:12:48;;;;;;;;;;;20.90;1.00;;;;;;4957178;29;19926;-54
2023/09/30 04:15:15;;;;;;;;;;;20.90;1.00;;;;;;4957346;29;19981;-53
2023/09/30 04:17:42;;;;;;;;;;;20.90;1.00;;;;;;4957214;29;19926;-54
2023/09/30 04:20:10;;;;;;;;;;;20.90;1.00;;;;;;4956585;28;19933;-54
2023/09/30 04:22:38;;;;;;;;;;;20.90;1.00;;;;;;4939924;29;19949;-53
2023/09/30 04:25:12;;;;;;;;;;;20.90;1.00;;;;;;4956769;29;19926;-52
2023/09/30 04:27:39;;;;;;;;;;;20.90;1.00;;;;;;4956981;29;20341;-55
2023/09/30 04:30:08;;;;;;;;;;;20.90;1.00;;;;;;4956494;28;20384;-51
2023/09/30 04:32:36;;;;;;;;;;;20.90;1.00;;;;;;4956941;29;19949;-54
2023/09/30 04:35:04;;;;;;;;;;;20.90;1.00;;;;;;4956720;29;19930;-54
2023/09/30 04:37:31;;;;;;;;;;;20.90;1.00;;;;;;4956908;29;19973;-53
2023/09/30 04:39:58;;;;;;;;;;;20.90;1.00;;;;;;4956439;28;19927;-52
2023/09/30 04:42:25;;;;;;;;;;;20.90;1.00;;;;;;4956796;29;19926;-53
2023/09/30 04:44:59;;;;;;;;;;;20.90;1.00;;;;;;4956604;29;19927;-51
2023/09/30 04:47:26;;;;;;;;;;;20.90;1.00;;;;;;4956635;29;19933;-56
2023/09/30 04:49:53;;;;;;;;;;;20.90;1.00;;;;;;4955591;28;20274;-50
2023/09/30 04:52:20;;;;;;;;;;;20.90;1.00;;;;;;4937477;29;19982;-51
2023/09/30 04:54:47;;;;;;;;;;;20.90;1.00;;;;;;4937578;29;19966;-53
2023/09/30 04:57:14;;;;;;;;;;;20.90;1.00;;;;;;4937329;29;19934;-53
2023/09/30 04:59:42;;;;;;;;;;;20.90;1.00;;;;;;4920022;29;20470;-54
2023/09/30 05:02:10;;;;;;;;;;;20.80;1.00;;;;;;4937166;29;19973;-55
2023/09/30 05:04:37;;;;;;;;;;;20.80;1.00;;;;;;4937502;29;19927;-55
2023/09/30 05:07:04;;;;;;;;;;;20.80;1.00;;;;;;4937002;29;19927;-54
2023/09/30 05:09:31;;;;;;;;;;;20.90;1.00;;;;;;4936906;29;19927;-55
2023/09/30 05:11:58;;;;;;;;;;;20.80;1.00;;;;;;4937016;29;19927;-52
2023/09/30 05:14:24;;;;;;;;;;;20.80;1.00;;;;;;4937060;29;19934;-54
2023/09/30 05:16:51;;;;;;;;;;;20.80;1.00;;;;;;4937208;29;20300;-51
2023/09/30 05:19:18;;;;;;;;;;;20.80;1.00;;;;;;4932330;29;19926;-51
2023/09/30 05:21:45;;;;;;;;;;;20.80;1.00;;;;;;4955104;28;19973;-53
2023/09/30 05:24:11;;;;;;;;;;;20.80;1.00;;;;;;4927366;29;20308;-51
2023/09/30 05:26:38;;;;;;;;;;;20.80;1.00;;;;;;4919811;29;20397;-55
2023/09/30 05:29:05;;;;;;;;;;;20.80;1.00;;;;;;4936572;29;19927;-53
2023/09/30 05:31:32;;;;;;;;;;;20.80;1.00;;;;;;4936881;29;19934;-51
2023/09/30 05:33:59;;;;;;;;;;;20.80;1.00;;;;;;4936616;29;19927;-53
2023/09/30 05:36:27;;;;;;;;;;;20.80;1.00;;;;;;4936659;29;19927;-54
2023/09/30 05:38:55;;;;;;;;;;;20.80;1.00;;;;;;4936344;29;19987;-54
2023/09/30 05:41:22;;;;;;;;;;;20.80;1.00;;;;;;4935861;29;19982;-53
2023/09/30 05:43:49;;;;;;;;;;;20.80;1.00;;;;;;4935801;29;20393;-51
2023/09/30 05:46:16;;;;;;;;;;;20.80;1.00;;;;;;4935944;29;20400;-54
2023/09/30 05:48:43;;;;;;;;;;;20.80;1.00;;;;;;4936004;29;19934;-54
2023/09/30 05:51:13;;;;;;;;;;;20.80;1.00;;;;;;4935811;29;20005;-55
2023/09/30 05:53:41;;;;;;;;;;;20.80;1.00;;;;;;4936313;29;20453;-56
2023/09/30 05:56:10;;;;;;;;;;;20.80;1.00;;;;;;4936198;29;19933;-52
2023/09/30 05:58:37;;;;;;;;;;;20.80;1.00;;;;;;4936344;29;19966;-57
2023/09/30 06:01:10;;;;;;;;;;;20.80;1.00;;;;;;4935569;29;19927;-51
2023/09/30 06:03:40;;;;;;;;;;;20.80;1.00;;;;;;4924765;29;20389;-54
2023/09/30 06:06:12;;;;;;;;;;;20.80;1.00;;;;;;4955091;29;19976;-53
2023/09/30 06:08:39;;;;;;;;;;;20.80;1.00;;;;;;4955226;29;20025;-52
2023/09/30 06:11:06;;;;;;;;;;;20.80;1.00;;;;;;4954717;29;19926;-56
2023/09/30 06:13:33;;;;;;;;;;;20.80;1.00;;;;;;4955033;29;19927;-51
2023/09/30 06:15:59;;;;;;;;;;;20.80;1.00;;;;;;4954805;29;19926;-53
2023/09/30 06:18:26;;;;;;;;;;;20.80;1.00;;;;;;4955175;29;19939;-53
2023/09/30 06:20:53;;;;;;;;;;;20.70;1.00;;;;;;4954781;28;19933;-52
2023/09/30 06:23:20;;;;;;;;;;;20.80;1.00;;;;;;4954774;29;20343;-51
2023/09/30 06:25:47;;;;;;;;;;;20.80;1.00;;;;;;4954908;29;19949;-60
2023/09/30 06:28:13;;;;;;;;;;;20.80;1.00;;;;;;4936093;29;19927;-57
2023/09/30 06:30:42;;;;;;;;;;;20.70;1.00;;;;;;4935296;29;19931;-56
2023/09/30 06:33:11;;;;;;;;;;;20.80;1.00;;;;;;4935382;29;19926;-56
2023/09/30 06:35:50;;;;;;;;;;;20.70;1.00;;;;;;4935595;29;19931;-51
2023/09/30 06:38:17;;;;;;;;;;;20.70;1.00;;;;;;4935352;29;19930;-55
2023/09/30 06:40:46;;;;;;;;;;;20.70;1.00;;;;;;4935287;29;19982;-55
2023/09/30 06:43:15;;;;;;;;;;;20.70;1.00;;;;;;4935166;29;19934;-55
2023/09/30 06:45:43;;;;;;;;;;;20.70;1.00;;;;;;4935287;29;19934;-54
2023/09/30 06:48:14;;;;;;;;;;;20.70;1.00;;;;;;4935049;29;20206;-54
2023/09/30 06:50:48;;;;;;;;;;;20.70;1.00;;;;;;4935021;29;19931;-57
2023/09/30 06:53:16;;;;;;;;;;;20.70;1.00;;;;;;4935032;29;20360;-54
2023/09/30 06:55:45;;;;;;;;;;;20.70;1.00;;;;;;4935390;29;19969;-57
2023/09/30 06:58:13;;;;;;;;;;;20.70;1.00;;;;;;4936433;29;19927;-61
2023/09/30 07:00:41;;;;;;;;;;;20.70;1.00;;;;;;4953982;28;20095;-53
2023/09/30 07:03:09;;;;;;;;;;;20.70;1.00;;;;;;4954140;29;20358;-51
2023/09/30 07:05:36;;;;;;;;;;;20.70;1.00;;;;;;4955507;29;19937;-57
2023/09/30 07:08:03;;;;;;;;;;;20.70;1.00;;;;;;4955803;29;20319;-57
2023/09/30 07:10:30;;;;;;;;;;;20.70;1.00;;;;;;4955352;28;19976;-55
2023/09/30 07:12:57;;;;;;;;;;;20.70;1.00;;;;;;4955506;29;19930;-57
2023/09/30 07:15:24;;;;;;;;;;;20.70;1.00;;;;;;4935879;29;20374;-55
2023/09/30 07:17:50;;;;;;;;;;;20.70;1.00;;;;;;4935066;29;19938;-57
2023/09/30 07:20:17;;;;;;;;;;;20.70;1.00;;;;;;4944667;29;20037;-56
2023/09/30 07:22:44;;;;;;;;;;;20.70;1.00;;;;;;4954222;29;19970;-57
2023/09/30 07:25:31;;;;;;;;;;;20.70;1.00;;;;;;4927314;29;19931;-55
2023/09/30 07:27:59;;;;;;;;;;;20.70;1.00;;;;;;4934728;29;20001;-55
2023/09/30 07:30:26;;;;;;;;;;;20.70;1.00;;;;;;4934431;29;19927;-56
2023/09/30 07:32:53;;;;;;;;;;;20.70;1.00;;;;;;4934894;29;19926;-54
2023/09/30 07:35:20;;;;;;;;;;;20.70;1.00;;;;;;4934886;29;20476;-53
2023/09/30 07:37:47;;;;;;;;;;;20.70;1.00;;;;;;4934882;29;19934;-56
2023/09/30 07:40:14;;;;;;;;;;;20.70;1.00;;;;;;4951540;28;19926;-52
2023/09/30 07:42:41;;;;;;;;;;;20.70;1.00;;;;;;4953865;29;19944;-56
2023/09/30 07:45:08;;;;;;;;;;;20.70;1.00;;;;;;4956722;28;20353;-51
2023/09/30 07:47:35;;;;;;;;;;;20.70;1.00;;;;;;4957685;29;19930;-55
2023/09/30 07:50:06;;;;;;;;;;;20.70;1.00;;;;;;4957568;28;19932;-55
2023/09/30 07:52:33;;;;;;;;;;;20.70;1.00;;;;;;4931044;29;19977;-55
2023/09/30 07:55:00;;;;;;;;;;;20.70;1.00;;;;;;4938684;29;20033;-57
2023/09/30 07:57:26;;;;;;;;;;;20.70;1.00;;;;;;4938219;29;19933;-54
2023/09/30 07:59:54;;;;;;;;;;;20.70;1.00;;;;;;4938253;29;20389;-56
2023/09/30 08:02:22;;;;;;;;;;;20.70;1.00;;;;;;4938214;29;20162;-54
2023/09/30 08:04:49;;;;;;;;;;;20.70;1.00;;;;;;4952009;29;19962;-57
2023/09/30 08:07:16;;;;;;;;;;;20.70;1.00;;;;;;4957221;29;19989;-55
2023/09/30 08:09:42;;;;;;;;;;;20.70;1.00;;;;;;4956958;28;19927;-51
2023/09/30 08:12:09;;;;;;;;;;;20.70;1.00;;;;;;4957282;29;19934;-57
2023/09/30 08:14:36;;;;;;;;;;;20.70;1.00;;;;;;4957363;29;19933;-56
2023/09/30 08:17:03;;;;;;;;;;;20.70;1.00;;;;;;4956961;29;19966;-55
2023/09/30 08:19:29;;;;;;;;;;;20.70;1.00;;;;;;4956475;28;19933;-57
2023/09/30 08:21:57;;;;;;;;;;;20.70;1.00;;;;;;4940126;29;19934;-54
2023/09/30 08:24:23;;;;;;;;;;;20.70;1.00;;;;;;4956751;29;19926;-57
2023/09/30 08:26:51;;;;;;;;;;;20.70;1.00;;;;;;4956930;29;19927;-57
2023/09/30 08:29:18;;;;;;;;;;;20.70;1.00;;;;;;4956589;28;19927;-55
2023/09/30 08:31:45;;;;;;;;;;;20.70;1.00;;;;;;4956915;29;19926;-54
2023/09/30 08:34:14;;;;;;;;;;;20.80;1.00;;;;;;4956641;29;19977;-54
2023/09/30 08:36:41;;;;;;;;;;;20.80;1.00;;;;;;4956852;29;20290;-55
2023/09/30 08:39:10;;;;;;;;;;;20.70;1.00;;;;;;4956667;28;19927;-56
2023/09/30 08:41:36;;;;;;;;;;;20.80;1.00;;;;;;4930097;29;19990;-57
2023/09/30 08:44:04;;;;;;;;;;;20.80;1.00;;;;;;4937630;29;20292;-55
2023/09/30 08:46:32;;;;;;;;;;;20.80;1.00;;;;;;4937254;29;19927;-56
2023/09/30 08:49:03;;;;;;;;;;;20.80;1.00;;;;;;4937391;29;19959;-54
2023/09/30 08:51:30;;;;;;;;;;;20.80;1.00;;;;;;4955708;29;20204;-53
2023/09/30 08:53:58;;;;;;;;;;;20.80;1.00;;;;;;4956765;29;20222;-56
2023/09/30 08:56:29;;;;;;;;;;;20.80;1.00;;;;;;4956267;28;19958;-55
2023/09/30 08:59:00;;;;;;;;;;;20.80;1.00;;;;;;4956354;28;20025;-54
2023/09/30 09:01:30;;;;;;;;;;;20.80;1.00;;;;;;4953863;29;20369;-52
2023/09/30 09:03:57;;;;;;;;;;;20.80;1.00;;;;;;4936773;29;19933;-57
2023/09/30 09:06:25;;;;;;;;;;;20.90;1.00;;;;;;4937144;29;20067;-56
2023/09/30 09:08:52;;;;;;;;;;;20.90;1.00;;;;;;4936975;29;19972;-56
2023/09/30 09:11:19;;;;;;;;;;;20.80;1.00;;;;;;4936905;29;19965;-54
2023/09/30 09:13:50;;;;;;;;;;;20.90;1.00;;;;;;4937152;29;19926;-58
2023/09/30 09:16:20;;;;;;;;;;;20.90;1.00;;;;;;4936861;29;19982;-51
2023/09/30 09:18:47;;;;;;;;;;;20.90;1.00;;;;;;4936826;29;20041;-57
2023/09/30 09:21:16;;;;;;;;;;;20.90;1.00;;;;;;4936427;29;19927;-52
2023/09/30 09:23:44;;;;;;;;;;;20.90;1.00;;;;;;4936865;29;19927;-54
2023/09/30 09:26:11;;;;;;;;;;;21.00;1.00;;;;;;4936878;29;19961;-57
2023/09/30 09:28:39;;;;;;;;;;;21.00;1.00;;;;;;4928908;29;20481;-56
2023/09/30 09:31:25;;;;;;;;;;;21.00;1.00;;;;;;4936373;29;19926;-57
2023/09/30 09:33:53;;;;;;;;;;;21.00;1.00;;;;;;4930679;29;19926;-56
2023/09/30 09:36:20;;;;;;;;;;;21.00;1.00;;;;;;4936417;29;19926;-56
2023/09/30 09:38:48;;;;;;;;;;;21.10;1.00;;;;;;4936529;29;19973;-56
2023/09/30 09:41:15;;;;;;;;;;;21.10;1.00;;;;;;4936268;29;20393;-54
2023/09/30 09:43:42;;;;;;;;;;;21.10;1.00;;;;;;4936350;29;19931;-56
2023/09/30 09:46:09;;;;;;;;;;;21.10;1.00;;;;;;4936577;29;20296;-57
2023/09/30 09:48:37;;;;;;;;;;;21.10;1.00;;;;;;4936020;29;19933;-54
2023/09/30 09:51:07;;;;;;;;;;;21.10;1.00;;;;;;4936103;29;19934;-57
2023/09/30 09:53:36;;;;;;;;;;;21.10;1.00;;;;;;4936191;29;19965;-57
2023/09/30 09:56:09;;;;;;;;;;;21.20;1.00;;;;;;4936032;29;19934;-54
2023/09/30 09:58:38;;;;;;;;;;;21.20;1.00;;;;;;4936066;29;19934;-57
2023/09/30 10:01:06;;;;;;;;;;;21.20;1.00;;;;;;4936042;29;20403;-57
2023/09/30 10:03:33;;;;;;;;;;;21.20;1.00;;;;;;4936079;29;19926;-56
2023/09/30 10:06:00;;;;;;;;;;;21.20;1.00;;;;;;4941547;28;19926;-61
2023/09/30 10:08:47;;;;;;;;;;;21.20;1.00;;;;;;4954600;29;19982;-57
2023/09/30 10:11:17;;;;;;;;;;;21.20;1.00;;;;;;4954762;29;20033;-55
2023/09/30 10:13:53;;;;;;;;;;;21.30;1.00;;;;;;4928240;29;19930;-55
2023/09/30 10:16:39;;;;;;;;;;;21.30;1.00;;;;;;4935632;29;19954;-58
2023/09/30 10:19:22;;;;;;;;;;;21.30;1.00;;;;;;4935527;29;19974;-54
2023/09/30 10:22:07;;;;;;;;;;;21.30;1.00;;;;;;4928569;29;19927;-56
2023/09/30 10:24:34;;;;;;;;;;;21.30;1.00;;;;;;4935583;29;19927;-57
2023/09/30 10:27:19;;;;;;;;;;;21.30;1.00;;;;;;4935803;29;19962;-57
2023/09/30 10:29:46;;;;;;;;;;;21.30;1.00;;;;;;4927815;29;20333;-57
2023/09/30 10:32:14;;;;;;;;;;;21.40;1.00;;;;;;4935806;29;20034;-54
2023/09/30 10:34:52;;;;;;;;;;;21.40;1.00;;;;;;4935864;29;19930;-57
2023/09/30 10:37:22;;;;;;;;;;;21.40;1.00;;;;;;4935469;29;19934;-55
2023/09/30 10:39:58;;;;;;;;;;;21.40;1.00;;;;;;4928123;29;19962;-55
2023/09/30 10:42:45;;;;;;;;;;;21.40;1.00;;;;;;4935396;29;19927;-57
2023/09/30 10:45:33;;;;;;;;;;;21.50;1.00;;;;;;4918776;29;19950;-56
2023/09/30 10:48:19;;;;;;;;;;;21.40;1.00;;;;;;4925577;29;20333;-57
2023/09/30 10:50:50;;;;;;;;;;;21.50;1.00;;;;;;4927422;29;20304;-57
2023/09/30 10:53:20;;;;;;;;;;;21.40;1.00;;;;;;4935258;29;20444;-56
2023/09/30 10:55:51;;;;;;;;;;;21.50;1.00;;;;;;4927626;29;19933;-56
2023/09/30 10:58:18;;;;;;;;;;;21.50;1.00;;;;;;4935362;29;19934;-57
2023/09/30 11:00:54;;;;;;;;;;;21.50;1.00;;;;;;4935126;29;19972;-57
2023/09/30 11:03:22;;;;;;;;;;;21.50;1.00;;;;;;4935076;29;19931;-57
2023/09/30 11:05:51;;;;;;;;;;;21.50;1.00;;;;;;4935169;29;19927;-57
2023/09/30 11:08:37;;;;;;;;;;;21.50;1.00;;;;;;4936938;29;19930;-57
2023/09/30 11:11:03;;;;;;;;;;;21.50;1.00;;;;;;4940732;28;19927;-57
2023/09/30 11:13:34;;;;;;;;;;;21.50;1.00;;;;;;4934857;29;20408;-57
2023/09/30 11:16:02;;;;;;;;;;;21.50;1.00;;;;;;4935182;29;19939;-57
2023/09/30 11:18:29;;;;;;;;;;;21.50;1.00;;;;;;4934122;29;19933;-57
2023/09/30 11:21:05;;;;;;;;;;;21.50;1.00;;;;;;4934700;29;20344;-57
2023/09/30 11:23:32;;;;;;;;;;;21.50;1.00;;;;;;4934794;29;20388;-55
2023/09/30 11:25:59;;;;;;;;;;;21.50;1.00;;;;;;4935092;29;19934;-56
2023/09/30 11:28:35;;;;;;;;;;;21.50;1.00;;;;;;4934712;29;20088;-57
2023/09/30 11:31:02;;;;;;;;;;;21.50;1.00;;;;;;4934790;29;20029;-57
2023/09/30 11:33:30;;;;;;;;;;;21.50;1.00;;;;;;4934811;29;19927;-57
2023/09/30 11:36:01;;;;;;;;;;;21.50;1.00;;;;;;4935038;29;20312;-55
2023/09/30 11:38:28;;;;;;;;;;;21.50;1.00;;;;;;4935086;29;20412;-61
2023/09/30 11:40:58;;;;;;;;;;;21.60;1.00;;;;;;4946457;23;19927;-57
2023/09/30 11:43:25;;;;;;;;;;;21.60;1.00;;;;;;4934848;29;19927;-57
2023/09/30 11:45:52;;;;;;;;;;;21.60;1.00;;;;;;4934916;29;20017;-57
2023/09/30 11:48:22;;;;;;;;;;;21.60;1.00;;;;;;4934738;29;20456;-57
2023/09/30 11:50:52;;;;;;;;;;;21.60;1.00;;;;;;4934534;29;19926;-56
2023/09/30 11:53:20;;;;;;;;;;;21.60;1.00;;;;;;4934818;29;19931;-57
2023/09/30 11:55:47;;;;;;;;;;;21.50;1.00;;;;;;4934597;29;19927;-56
2023/09/30 11:58:18;;;;;;;;;;;21.60;1.00;;;;;;4935254;29;19966;-56
2023/09/30 12:00:45;;;;;;;;;;;21.60;1.00;;;;;;4934117;29;20303;-57
2023/09/30 12:03:12;;;;;;;;;;;21.60;1.00;;;;;;4934732;29;19927;-57
2023/09/30 12:05:39;;;;;;;;;;;21.60;1.00;;;;;;4934591;29;20046;-58
2023/09/30 12:08:06;;;;;;;;;;;21.60;1.00;;;;;;4934765;29;20377;-56
2023/09/30 12:10:33;;;;;;;;;;;21.60;1.00;;;;;;4934111;29;19927;-61
2023/09/30 12:13:00;;;;;;;;;;;21.60;1.00;;;;;;4920345;29;19933;-57
2023/09/30 12:15:27;;;;;;;;;;;21.60;1.00;;;;;;4935124;29;20002;-57
2023/09/30 12:17:53;;;;;;;;;;;21.60;1.00;;;;;;4919325;29;19927;-54
2023/09/30 12:20:20;;;;;;;;;;;21.60;1.00;;;;;;4934611;29;19927;-55
2023/09/30 12:22:48;;;;;;;;;;;21.60;1.00;;;;;;4934725;29;20052;-56
2023/09/30 12:25:16;;;;;;;;;;;21.60;1.00;;;;;;4934965;29;19931;-57
2023/09/30 12:27:46;;;;;;;;;;;21.60;1.00;;;;;;4934405;29;20370;-57
2023/09/30 12:30:13;;;;;;;;;;;21.60;1.00;;;;;;4935520;29;19927;-53
2023/09/30 12:32:40;;;;;;;;;;;21.60;1.00;;;;;;4938170;29;20029;-56
2023/09/30 12:35:07;;;;;;;;;;;21.60;1.00;;;;;;4938435;29;19942;-57
2023/09/30 12:37:34;;;;;;;;;;;21.60;1.00;;;;;;4937544;29;19978;-57
2023/09/30 12:40:03;;;;;;;;;;;21.60;1.00;;;;;;4937335;29;19974;-55
2023/09/30 12:42:30;;;;;;;;;;;21.60;1.00;;;;;;4937940;29;19927;-54
2023/09/30 12:44:56;;;;;;;;;;;21.60;1.00;;;;;;4938207;29;19935;-54
2023/09/30 12:47:23;;;;;;;;;;;21.60;1.00;;;;;;4937680;29;19927;-53
2023/09/30 12:49:51;;;;;;;;;;;21.60;1.00;;;;;;4937420;29;19940;-57
2023/09/30 12:52:18;;;;;;;;;;;21.60;1.00;;;;;;4937994;29;19938;-54
2023/09/30 12:54:45;;;;;;;;;;;21.60;1.00;;;;;;4937666;29;19930;-57
2023/09/30 12:57:13;;;;;;;;;;;21.60;1.00;;;;;;4937604;29;20381;-57
2023/09/30 12:59:40;;;;;;;;;;;21.60;1.00;;;;;;4937078;29;19927;-56
2023/09/30 13:02:07;;;;;;;;;;;21.60;1.00;;;;;;4937266;29;20380;-57
2023/09/30 13:04:34;;;;;;;;;;;21.60;1.00;;;;;;4937285;29;19934;-55
2023/09/30 13:07:01;;;;;;;;;;;21.60;1.00;;;;;;4937489;29;19930;-57
2023/09/30 13:09:28;;;;;;;;;;;21.60;1.00;;;;;;4936976;29;19949;-57
2023/09/30 13:11:58;;;;;;;;;;;21.60;1.00;;;;;;4937109;29;19931;-57
2023/09/30 13:14:27;;;;;;;;;;;21.60;1.00;;;;;;4937115;29;19954;-57
2023/09/30 13:16:54;;;;;;;;;;;21.60;1.00;;;;;;4937284;29;19930;-57
2023/09/30 13:19:22;;;;;;;;;;;21.60;1.00;;;;;;4937244;29;20361;-56
2023/09/30 13:21:52;;;;;;;;;;;21.60;1.00;;;;;;4936869;29;20377;-57
2023/09/30 13:24:19;;;;;;;;;;;21.60;1.00;;;;;;4937220;29;19933;-56
2023/09/30 13:26:46;;;;;;;;;;;21.60;1.00;;;;;;4937042;29;19935;-57
2023/09/30 13:29:14;;;;;;;;;;;21.60;1.00;;;;;;4937255;29;20325;-57
2023/09/30 13:31:43;;;;;;;;;;;21.60;1.00;;;;;;4937153;29;19966;-57
2023/09/30 13:34:12;;;;;;;;;;;21.60;1.00;;;;;;4937308;29;19927;-57
2023/09/30 13:36:38;;;;;;;;;;;21.60;1.00;;;;;;4936542;29;20419;-57
2023/09/30 13:39:05;;;;;;;;;;;21.60;1.00;;;;;;4936679;29;20415;-57
2023/09/30 13:41:35;;;;;;;;;;;21.60;1.00;;;;;;4936044;29;19933;-54
2023/09/30 13:44:02;;;;;;;;;;;21.60;1.00;;;;;;4921615;29;19958;-54
2023/09/30 13:46:30;;;;;;;;;;;21.60;1.00;;;;;;4936552;29;19927;-57
2023/09/30 13:48:57;;;;;;;;;;;21.60;1.00;;;;;;4936258;29;19934;-54
2023/09/30 13:51:25;;;;;;;;;;;21.60;1.00;;;;;;4936462;29;19934;-56
2023/09/30 13:53:53;;;;;;;;;;;21.60;1.00;;;;;;4936851;29;19962;-57
2023/09/30 13:56:20;;;;;;;;;;;21.60;1.00;;;;;;4936607;29;19934;-55
2023/09/30 13:58:48;;;;;;;;;;;21.60;1.00;;;;;;4936520;29;19926;-57
2023/09/30 14:01:15;;;;;;;;;;;21.60;1.00;;;;;;4936136;29;19937;-57
2023/09/30 14:03:43;;;;;;;;;;;21.60;1.00;;;;;;4936499;29;20452;-56
2023/09/30 14:06:11;;;;;;;;;;;21.60;1.00;;;;;;4936468;29;19927;-57
2023/09/30 14:08:38;;;;;;;;;;;21.60;1.00;;;;;;4936369;29;19957;-56
2023/09/30 14:11:05;;;;;;;;;;;21.60;1.00;;;;;;4936099;29;19931;-57
2023/09/30 14:13:32;;;;;;;;;;;21.60;1.00;;;;;;4925805;29;19950;-57
2023/09/30 14:15:59;;;;;;;;;;;21.60;1.00;;;;;;4921523;29;19979;-62
2023/09/30 14:18:26;;;;;;;;;;;21.60;1.00;;;;;;4935998;29;20341;-57
2023/09/30 14:20:53;;;;;;;;;;;21.60;1.00;;;;;;4935379;29;20468;-57
2023/09/30 14:23:19;;;;;;;;;;;21.60;1.00;;;;;;4935889;29;20300;-54
2023/09/30 14:25:46;;;;;;;;;;;21.60;1.00;;;;;;4935691;29;19927;-57
2023/09/30 14:28:13;;;;;;;;;;;21.60;1.00;;;;;;4935853;29;19933;-57
2023/09/30 14:30:40;;;;;;;;;;;21.60;1.00;;;;;;4935497;29;19978;-55
2023/09/30 14:33:07;;;;;;;;;;;21.60;1.00;;;;;;4935945;29;19927;-57
2023/09/30 14:35:34;;;;;;;;;;;21.60;1.00;;;;;;4935627;29;19926;-57
2023/09/30 14:38:02;;;;;;;;;;;21.60;1.00;;;;;;4935179;29;19939;-53